createdAt,value
2023-05-24T00:00:13.377Z,99750.67
2023-05-24T00:02:57.301Z,99762.28
2023-05-24T00:05:41.058Z,99756.36
2023-05-24T00:08:15.424Z,99750.48
2023-05-24T00:10:57.563Z,99755.80
2023-05-24T00:13:30.460Z,99748.64
2023-05-24T00:16:12.717Z,99759.44
2023-05-24T00:18:47.226Z,99748.64
2023-05-24T00:21:29.651Z,99749.50
2023-05-24T00:24:02.289Z,99750.32
2023-05-24T00:26:46.164Z,99747.56
2023-05-24T00:29:18.680Z,99740.41
2023-05-24T00:32:02.374Z,99746.58
2023-05-24T00:34:35.612Z,99738.73
2023-05-24T00:37:20.263Z,99743.48
2023-05-24T00:40:05.112Z,99740.95
2023-05-24T00:42:37.717Z,99730.13
2023-05-24T00:45:20.363Z,99740.16
2023-05-24T00:47:54.293Z,99726.80
2023-05-24T00:50:36.651Z,99733.93
2023-05-24T00:53:10.742Z,99732.65
2023-05-24T00:55:56.262Z,99732.50
2023-05-24T00:58:31.282Z,99729.42
2023-05-24T01:01:16.676Z,99728.42
2023-05-24T01:04:01.022Z,99729.33
2023-05-24T01:06:40.714Z,99725.78
2023-05-24T01:09:29.084Z,99710.13
2023-05-24T01:12:31.947Z,99710.98
2023-05-24T01:15:18.604Z,99712.03
2023-05-24T01:18:15.796Z,99709.50
2023-05-24T01:20:50.727Z,99707.09
2023-05-24T01:23:55.003Z,99705.98
2023-05-24T01:26:45.642Z,99699.13
2023-05-24T01:29:30.110Z,99702.95
2023-05-24T01:32:04.519Z,99690.90
2023-05-24T01:34:48.906Z,99707.28
2023-05-24T01:37:21.487Z,99697.51
2023-05-24T01:40:06.567Z,99704.37
2023-05-24T01:42:52.673Z,99691.81
2023-05-24T01:45:38.436Z,99706.52
2023-05-24T01:48:18.317Z,99697.95
2023-05-24T01:51:04.056Z,99709.05
2023-05-24T01:53:39.374Z,99687.06
2023-05-24T01:56:22.966Z,99691.98
2023-05-24T01:58:59.863Z,99694.78
2023-05-24T02:01:42.745Z,99699.83
2023-05-24T02:04:15.817Z,99704.18
2023-05-24T02:07:00.976Z,99695.80
2023-05-24T02:09:34.251Z,99695.09
2023-05-24T02:12:18.094Z,99695.38
2023-05-24T02:14:51.254Z,99684.05
2023-05-24T02:17:36.054Z,99692.59
2023-05-24T02:20:09.771Z,99694.42
2023-05-24T02:22:54.887Z,99693.31
2023-05-24T02:25:29.165Z,99687.86
2023-05-24T02:28:13.361Z,99698.20
2023-05-24T02:30:46.128Z,99686.58
2023-05-24T02:33:30.351Z,99686.02
2023-05-24T02:36:13.122Z,99692.06
2023-05-24T02:38:46.038Z,99691.13
2023-05-24T02:41:19.037Z,99689.31
2023-05-24T02:44:03.654Z,99698.51
2023-05-24T02:46:36.456Z,99680.95
2023-05-24T02:49:18.578Z,99688.20
2023-05-24T02:52:02.662Z,99687.77
2023-05-24T02:54:46.921Z,99689.91
2023-05-24T02:57:19.739Z,99683.80
2023-05-24T03:00:02.327Z,99687.67
2023-05-24T03:02:38.608Z,99682.02
2023-05-24T03:05:21.484Z,99674.26
2023-05-24T03:07:54.141Z,99677.30
2023-05-24T03:10:38.405Z,99685.05
2023-05-24T03:13:12.172Z,99672.02
2023-05-24T03:15:54.230Z,99674.46
2023-05-24T03:18:38.486Z,99674.47
2023-05-24T03:21:11.665Z,99670.11
2023-05-24T03:23:58.138Z,99673.07
2023-05-24T03:26:43.583Z,99672.35
2023-05-24T03:29:16.136Z,99670.11
2023-05-24T03:32:00.296Z,99685.53
2023-05-24T03:34:47.025Z,99680.89
2023-05-24T03:37:31.126Z,99683.70
2023-05-24T03:40:05.625Z,99672.77
2023-05-24T03:43:09.016Z,99670.23
2023-05-24T03:45:52.897Z,99673.84
2023-05-24T03:48:25.695Z,99664.77
2023-05-24T03:51:10.099Z,99661.47
2023-05-24T03:53:53.823Z,99664.41
2023-05-24T03:56:27.339Z,99661.07
2023-05-24T03:59:11.446Z,99654.41
2023-05-24T04:01:44.590Z,99646.89
2023-05-24T04:04:27.040Z,99644.56
2023-05-24T04:07:13.912Z,99647.02
2023-05-24T04:09:56.473Z,99643.57
2023-05-24T04:12:28.956Z,99628.25
2023-05-24T04:15:01.934Z,99639.27
2023-05-24T04:17:47.113Z,99644.17
2023-05-24T04:20:20.805Z,99639.83
2023-05-24T04:23:04.205Z,99641.94
2023-05-24T04:25:46.394Z,99641.94
2023-05-24T04:28:19.200Z,99636.45
2023-05-24T04:30:53.993Z,99643.64
2023-05-24T04:33:39.793Z,99645.31
2023-05-24T04:36:26.268Z,99643.47
2023-05-24T04:39:02.005Z,99640.12
2023-05-24T04:41:44.595Z,99644.31
2023-05-24T04:44:17.676Z,99640.75
2023-05-24T04:47:01.120Z,99637.48
2023-05-24T04:49:33.803Z,99635.02
2023-05-24T04:52:17.970Z,99648.97
2023-05-24T04:55:00.206Z,99649.42
2023-05-24T04:57:34.647Z,99637.36
2023-05-24T05:00:18.804Z,99639.67
2023-05-24T05:02:52.546Z,99641.30
2023-05-24T05:05:25.347Z,99641.88
2023-05-24T05:08:09.871Z,99648.61
2023-05-24T05:10:42.830Z,99641.33
2023-05-24T05:13:25.322Z,99639.80
2023-05-24T05:15:58.108Z,99650.05
2023-05-24T05:18:41.914Z,99648.09
2023-05-24T05:21:14.749Z,99649.48
2023-05-24T05:23:58.832Z,99642.84
2023-05-24T05:26:32.409Z,99640.60
2023-05-24T05:29:14.758Z,99644.17
2023-05-24T05:31:48.206Z,99643.37
2023-05-24T05:34:32.533Z,99647.05
2023-05-24T05:37:05.390Z,99644.23
2023-05-24T05:39:49.615Z,99654.84
2023-05-24T05:42:22.541Z,99642.36
2023-05-24T05:45:07.202Z,99646.05
2023-05-24T05:47:40.740Z,99641.95
2023-05-24T05:50:26.093Z,99650.23
2023-05-24T05:52:58.713Z,99630.96
2023-05-24T05:55:40.988Z,99632.17
2023-05-24T05:58:13.901Z,99631.09
2023-05-24T06:00:59.376Z,99633.73
2023-05-24T06:03:32.216Z,99621.80
2023-05-24T06:06:14.376Z,99626.53
2023-05-24T06:08:47.371Z,99619.86
2023-05-24T06:11:29.569Z,99628.30
2023-05-24T06:14:02.949Z,99625.06
2023-05-24T06:16:54.687Z,99632.22
2023-05-24T06:19:27.677Z,99624.61
2023-05-24T06:22:11.502Z,99630.10
2023-05-24T06:24:44.440Z,99619.16
2023-05-24T06:27:28.743Z,99626.50
2023-05-24T06:30:01.532Z,99616.37
2023-05-24T06:32:46.268Z,99618.75
2023-05-24T06:35:19.628Z,99609.69
2023-05-24T06:38:23.406Z,99624.26
2023-05-24T06:40:56.158Z,99614.13
2023-05-24T06:43:38.873Z,99623.70
2023-05-24T06:46:11.546Z,99617.85
2023-05-24T06:48:56.293Z,99620.64
2023-05-24T06:51:29.343Z,99615.43
2023-05-24T06:54:13.547Z,99613.16
2023-05-24T06:56:46.278Z,99618.41
2023-05-24T06:59:29.989Z,99621.55
2023-05-24T07:02:14.193Z,99620.94
2023-05-24T07:04:47.893Z,99614.95
2023-05-24T07:07:32.654Z,99620.28
2023-05-24T07:10:06.370Z,99617.36
2023-05-24T07:12:49.994Z,99604.58
2023-05-24T07:15:23.014Z,99608.80
2023-05-24T07:18:05.718Z,99610.37
2023-05-24T07:20:38.744Z,99617.04
2023-05-24T07:23:22.830Z,99614.77
2023-05-24T07:25:55.495Z,99613.36
2023-05-24T07:28:28.217Z,99606.59
2023-05-24T07:31:12.021Z,99619.20
2023-05-24T07:33:44.796Z,99618.76
2023-05-24T07:36:31.585Z,99629.28
2023-05-24T07:39:06.300Z,99623.87
2023-05-24T07:41:51.188Z,99638.30
2023-05-24T07:44:24.316Z,99629.66
2023-05-24T07:47:07.023Z,99641.71
2023-05-24T07:49:39.981Z,99637.38
2023-05-24T07:52:24.596Z,99637.22
2023-05-24T07:54:57.287Z,99632.77
2023-05-24T07:57:41.241Z,99639.73
2023-05-24T08:00:17.444Z,99631.55
2023-05-24T08:03:01.973Z,99633.41
2023-05-24T08:05:46.333Z,99643.81
2023-05-24T08:08:19.729Z,99629.19
2023-05-24T08:11:03.688Z,99641.25
2023-05-24T08:13:36.592Z,99637.65
2023-05-24T08:16:19.728Z,99646.17
2023-05-24T08:18:54.920Z,99633.92
2023-05-24T08:21:38.505Z,99638.47
2023-05-24T08:24:11.928Z,99635.87
2023-05-24T08:26:55.897Z,99642.28
2023-05-24T08:29:28.815Z,99630.43
2023-05-24T08:32:12.713Z,99642.68
2023-05-24T08:35:06.726Z,99633.18
2023-05-24T08:37:32.830Z,99631.48
2023-05-24T08:40:16.733Z,99633.98
2023-05-24T08:43:03.187Z,99623.16
2023-05-24T08:45:38.752Z,99631.25
2023-05-24T08:48:25.176Z,99631.92
2023-05-24T08:50:59.627Z,99627.66
2023-05-24T08:53:52.017Z,99626.87
2023-05-24T08:56:27.168Z,99627.91
2023-05-24T08:59:13.182Z,99635.92
2023-05-24T09:01:47.924Z,99640.67
2023-05-24T09:04:32.280Z,99647.08
2023-05-24T09:07:18.292Z,99644.79
2023-05-24T09:10:07.727Z,99636.23
2023-05-24T09:12:59.518Z,99640.88
2023-05-24T09:15:32.809Z,99642.34
2023-05-24T09:18:17.336Z,99641.45
2023-05-24T09:20:50.161Z,99631.17
2023-05-24T09:23:34.931Z,99627.75
2023-05-24T09:26:12.032Z,99627.23
2023-05-24T09:28:58.089Z,99625.67
2023-05-24T09:31:38.288Z,99623.62
2023-05-24T09:34:23.061Z,99636.63
2023-05-24T09:36:56.538Z,99628.52
2023-05-24T09:39:42.362Z,99629.00
2023-05-24T09:42:21.266Z,99625.66
2023-05-24T09:45:09.679Z,99628.57
2023-05-24T09:47:54.745Z,99628.98
2023-05-24T09:50:27.970Z,99631.08
2023-05-24T09:53:13.119Z,99632.35
2023-05-24T09:55:46.931Z,99620.87
2023-05-24T09:58:33.771Z,99622.82
2023-05-24T10:01:08.827Z,99626.80
2023-05-24T10:03:57.992Z,99635.34
2023-05-24T10:06:45.416Z,99642.00
2023-05-24T10:09:34.182Z,99636.25
2023-05-24T10:12:09.405Z,99623.20
2023-05-24T10:14:53.523Z,99635.41
2023-05-24T10:17:27.759Z,99632.75
2023-05-24T10:20:12.487Z,99642.63
2023-05-24T10:22:47.345Z,99634.71
2023-05-24T10:25:30.730Z,99648.21
2023-05-24T10:28:06.649Z,99637.78
2023-05-24T10:31:03.380Z,99645.47
2023-05-24T10:33:49.097Z,99654.84
2023-05-24T10:36:23.060Z,99649.63
2023-05-24T10:39:08.533Z,99659.17
2023-05-24T10:41:42.513Z,99655.67
2023-05-24T10:44:29.375Z,99662.95
2023-05-24T10:47:13.455Z,99656.91
2023-05-24T10:50:02.467Z,99647.93
2023-05-24T10:52:47.879Z,99652.13
2023-05-24T10:55:22.081Z,99655.25
2023-05-24T10:58:07.315Z,99661.31
2023-05-24T11:00:53.455Z,99664.00
2023-05-24T11:03:26.733Z,99660.55
2023-05-24T11:06:11.694Z,99668.48
2023-05-24T11:08:45.166Z,99658.17
2023-05-24T11:11:32.175Z,99666.12
2023-05-24T11:14:04.516Z,99670.67
2023-05-24T11:16:52.111Z,99671.23
2023-05-24T11:19:28.393Z,99669.42
2023-05-24T11:22:13.780Z,99679.59
2023-05-24T11:24:45.963Z,99671.45
2023-05-24T11:27:18.495Z,99690.23
2023-05-24T11:30:02.369Z,99683.84
2023-05-24T11:32:35.727Z,99675.67
2023-05-24T11:35:22.496Z,99685.91
2023-05-24T11:37:55.428Z,99679.30
2023-05-24T11:40:41.056Z,99688.67
2023-05-24T11:43:24.771Z,99694.07
2023-05-24T11:45:58.066Z,99685.06
2023-05-24T11:48:42.449Z,99685.98
2023-05-24T11:51:15.422Z,99679.16
2023-05-24T11:54:01.302Z,99689.19
2023-05-24T11:56:34.471Z,99678.72
2023-05-24T11:59:29.948Z,99686.67
2023-05-24T12:02:06.967Z,99679.78
2023-05-24T12:04:50.931Z,99676.59
2023-05-24T12:07:25.545Z,99666.33
2023-05-24T12:10:10.797Z,99672.09
2023-05-24T12:12:46.802Z,99664.36
2023-05-24T12:15:29.010Z,99670.58
2023-05-24T12:18:02.141Z,99661.58
2023-05-24T12:20:51.163Z,99667.53
2023-05-24T12:23:27.646Z,99656.84
2023-05-24T12:26:15.070Z,99661.52
2023-05-24T12:28:58.935Z,99655.20
2023-05-24T12:31:31.629Z,99649.63
2023-05-24T12:34:22.853Z,99659.34
2023-05-24T12:36:57.408Z,99648.98
2023-05-24T12:39:44.496Z,99651.49
2023-05-24T12:42:17.156Z,99645.69
2023-05-24T12:44:50.989Z,99658.26
2023-05-24T12:47:33.624Z,99646.11
2023-05-24T12:50:06.684Z,99644.42
2023-05-24T12:52:55.232Z,99645.78
2023-05-24T12:55:39.356Z,99643.42
2023-05-24T12:58:13.591Z,99640.01
2023-05-24T13:00:57.700Z,99642.66
2023-05-24T13:03:46.332Z,99650.28
2023-05-24T13:06:19.360Z,99638.88
2023-05-24T13:09:02.146Z,99647.52
2023-05-24T13:11:34.818Z,99652.69
2023-05-24T13:14:20.064Z,99662.00
2023-05-24T13:16:53.166Z,99654.09
2023-05-24T13:19:36.979Z,99662.56
2023-05-24T13:22:09.861Z,99657.65
2023-05-24T13:24:53.634Z,99660.33
2023-05-24T13:27:26.867Z,99659.87
2023-05-24T13:30:01.295Z,99670.95
2023-05-24T13:32:43.403Z,99666.59
2023-05-24T13:35:16.725Z,99651.81
2023-05-24T13:38:02.624Z,99657.02
2023-05-24T13:40:35.466Z,99650.58
2023-05-24T13:43:19.454Z,99658.69
2023-05-24T13:45:52.669Z,99652.73
2023-05-24T13:48:35.084Z,99661.71
2023-05-24T13:51:07.705Z,99657.85
2023-05-24T13:53:52.252Z,99653.75
2023-05-24T13:56:37.370Z,99653.10
2023-05-24T13:59:11.044Z,99645.16
2023-05-24T14:01:54.826Z,99655.05
2023-05-24T14:04:38.570Z,99658.80
2023-05-24T14:07:23.350Z,99659.61
2023-05-24T14:09:57.184Z,99651.42
2023-05-24T14:12:30.278Z,99651.34
2023-05-24T14:15:18.518Z,99659.08
2023-05-24T14:17:51.620Z,99659.27
2023-05-24T14:20:34.413Z,99664.28
2023-05-24T14:23:10.744Z,99668.58
2023-05-24T14:25:55.061Z,99668.73
2023-05-24T14:28:27.827Z,99664.95
2023-05-24T14:31:11.741Z,99665.41
2023-05-24T14:33:44.917Z,99663.16
2023-05-24T14:36:26.992Z,99669.47
2023-05-24T14:38:59.716Z,99660.18
2023-05-24T14:41:43.670Z,99669.48
2023-05-24T14:44:16.507Z,99658.17
2023-05-24T14:46:59.231Z,99666.72
2023-05-24T14:49:31.838Z,99656.41
2023-05-24T14:52:14.078Z,99667.45
2023-05-24T14:54:46.966Z,99654.95
2023-05-24T14:57:31.737Z,99661.58
2023-05-24T15:00:05.237Z,99659.87
2023-05-24T15:02:49.733Z,99662.20
2023-05-24T15:05:22.583Z,99656.55
2023-05-24T15:08:06.031Z,99665.20
2023-05-24T15:10:40.926Z,99649.08
2023-05-24T15:13:26.290Z,99660.52
2023-05-24T15:16:00.604Z,99650.06
2023-05-24T15:18:45.974Z,99658.91
2023-05-24T15:21:30.114Z,99666.28
2023-05-24T15:24:02.685Z,99657.75
2023-05-24T15:26:47.549Z,99662.06
2023-05-24T15:29:20.409Z,99657.27
2023-05-24T15:32:02.618Z,99660.94
2023-05-24T15:34:46.462Z,99670.09
2023-05-24T15:37:21.000Z,99665.41
2023-05-24T15:40:08.125Z,99675.02
2023-05-24T15:42:41.332Z,99667.64
2023-05-24T15:45:25.046Z,99677.27
2023-05-24T15:47:57.776Z,99668.79
2023-05-24T15:51:22.129Z,99688.19
2023-05-24T15:53:18.730Z,99681.50
2023-05-24T15:56:04.808Z,99687.27
2023-05-24T15:58:37.879Z,99680.25
2023-05-24T16:01:21.818Z,99690.08
2023-05-24T16:03:54.726Z,99680.80
2023-05-24T16:06:39.240Z,99690.34
2023-05-24T16:09:11.841Z,99678.33
2023-05-24T16:11:54.048Z,99683.33
2023-05-24T16:14:26.898Z,99678.84
2023-05-24T16:17:10.705Z,99682.83
2023-05-24T16:19:55.254Z,99690.41
2023-05-24T16:22:28.424Z,99675.86
2023-05-24T16:25:13.644Z,99684.89
2023-05-24T16:27:46.448Z,99675.54
2023-05-24T16:30:30.653Z,99684.05
2023-05-24T16:33:03.806Z,99677.38
2023-05-24T16:35:48.744Z,99681.90
2023-05-24T16:38:22.132Z,99673.52
2023-05-24T16:41:07.803Z,99675.05
2023-05-24T16:43:50.041Z,99683.40
2023-05-24T16:46:24.012Z,99676.20
2023-05-24T16:49:08.481Z,99681.21
2023-05-24T16:51:41.340Z,99681.87
2023-05-24T16:54:23.625Z,99688.11
2023-05-24T16:56:56.911Z,99681.37
2023-05-24T16:59:42.666Z,99694.44
2023-05-24T17:02:16.852Z,99688.72
2023-05-24T17:05:00.522Z,99706.17
2023-05-24T17:07:34.104Z,99690.41
2023-05-24T17:10:17.997Z,99698.81
2023-05-24T17:12:51.209Z,99702.89
2023-05-24T17:15:36.874Z,99713.17
2023-05-24T17:18:09.676Z,99709.30
2023-05-24T17:20:52.071Z,99712.48
2023-05-24T17:23:26.748Z,99710.84
2023-05-24T17:26:11.779Z,99725.19
2023-05-24T17:28:46.519Z,99726.41
2023-05-24T17:31:30.701Z,99728.31
2023-05-24T17:34:03.561Z,99729.68
2023-05-24T17:36:47.365Z,99731.11
2023-05-24T17:39:21.402Z,99732.16
2023-05-24T17:42:07.668Z,99742.95
2023-05-24T17:44:40.485Z,99744.30
2023-05-24T17:47:24.744Z,99743.41
2023-05-24T17:49:57.926Z,99747.53
2023-05-24T17:52:41.606Z,99751.86
2023-05-24T17:55:14.591Z,99748.48
2023-05-24T17:58:00.166Z,99753.33
2023-05-24T18:00:33.074Z,99753.14
2023-05-24T18:03:15.488Z,99765.35
2023-05-24T18:05:48.339Z,99758.83
2023-05-24T18:08:32.807Z,99761.00
2023-05-24T18:11:16.653Z,99760.16
2023-05-24T18:13:49.670Z,99758.13
2023-05-24T18:16:33.390Z,99767.52
2023-05-24T18:19:06.059Z,99758.43
2023-05-24T18:21:50.829Z,99766.94
2023-05-24T18:24:23.559Z,99756.39
2023-05-24T18:27:07.550Z,99765.05
2023-05-24T18:29:40.142Z,99762.53
2023-05-24T18:32:24.046Z,99776.55
2023-05-24T18:34:57.227Z,99770.00
2023-05-24T18:37:41.377Z,99776.00
2023-05-24T18:40:18.108Z,99772.45
2023-05-24T18:43:01.668Z,99778.68
2023-05-24T18:45:34.182Z,99769.41
2023-05-24T18:48:17.873Z,99773.75
2023-05-24T18:50:51.130Z,99771.02
2023-05-24T18:53:36.441Z,99776.88
2023-05-24T18:56:09.046Z,99772.45
2023-05-24T18:58:54.270Z,99773.98
2023-05-24T19:01:28.366Z,99773.61
2023-05-24T19:04:10.554Z,99775.28
2023-05-24T19:06:43.558Z,99769.27
2023-05-24T19:09:26.356Z,99763.77
2023-05-24T19:12:14.997Z,99766.26
2023-05-24T19:14:47.729Z,99757.19
2023-05-24T19:17:32.840Z,99764.91
2023-05-24T19:20:05.554Z,99770.30
2023-05-24T19:22:49.196Z,99776.51
2023-05-24T19:25:21.932Z,99765.16
2023-05-24T19:28:07.174Z,99766.22
2023-05-24T19:30:40.003Z,99757.83
2023-05-24T19:33:24.111Z,99770.66
2023-05-24T19:35:56.734Z,99766.27
2023-05-24T19:38:38.791Z,99756.89
2023-05-24T19:41:21.040Z,99764.81
2023-05-24T19:44:04.665Z,99757.02
2023-05-24T19:46:37.720Z,99760.25
2023-05-24T19:49:21.539Z,99756.44
2023-05-24T19:51:54.092Z,99753.44
2023-05-24T19:54:36.198Z,99764.63
2023-05-24T19:57:11.366Z,99751.67
2023-05-24T19:59:53.371Z,99757.52
2023-05-24T20:02:36.994Z,99753.20
2023-05-24T20:05:09.766Z,99754.23
2023-05-24T20:07:53.951Z,99765.47
2023-05-24T20:10:28.304Z,99760.98
2023-05-24T20:13:12.835Z,99775.44
2023-05-24T20:15:56.498Z,99778.79
2023-05-24T20:18:29.187Z,99770.52
2023-05-24T20:21:14.952Z,99774.31
2023-05-24T20:23:58.730Z,99767.58
2023-05-24T20:26:33.418Z,99766.30
2023-05-24T20:29:18.450Z,99770.11
2023-05-24T20:31:51.423Z,99768.95
2023-05-24T20:34:36.129Z,99770.09
2023-05-24T20:37:09.446Z,99761.80
2023-05-24T20:39:53.322Z,99767.42
2023-05-24T20:42:26.585Z,99766.28
2023-05-24T20:45:10.857Z,99771.06
2023-05-24T20:47:53.059Z,99775.12
2023-05-24T20:50:25.959Z,99765.97
2023-05-24T20:53:09.826Z,99774.28
2023-05-24T20:55:42.667Z,99772.91
2023-05-24T20:58:27.894Z,99782.11
2023-05-24T21:01:00.485Z,99772.22
2023-05-24T21:03:42.839Z,99789.11
2023-05-24T21:06:15.816Z,99775.28
2023-05-24T21:09:01.269Z,99785.30
2023-05-24T21:11:33.528Z,99776.66
2023-05-24T21:14:06.063Z,99776.43
2023-05-24T21:16:48.358Z,99776.89
2023-05-24T21:19:21.012Z,99763.91
2023-05-24T21:22:03.038Z,99769.42
2023-05-24T21:24:35.986Z,99766.27
2023-05-24T21:27:20.352Z,99775.28
2023-05-24T21:30:04.541Z,99774.59
2023-05-24T21:32:37.309Z,99771.28
2023-05-24T21:35:21.436Z,99770.38
2023-05-24T21:37:54.356Z,99763.86
2023-05-24T21:40:26.985Z,99759.10
2023-05-24T21:43:12.078Z,99761.70
2023-05-24T21:45:45.092Z,99752.10
2023-05-24T21:48:17.952Z,99746.09
2023-05-24T21:51:00.447Z,99752.83
2023-05-24T21:53:44.205Z,99754.38
2023-05-24T21:56:17.038Z,99740.69
2023-05-24T21:59:00.677Z,99736.69
2023-05-24T22:01:33.381Z,99730.72
2023-05-24T22:04:17.651Z,99737.21
2023-05-24T22:07:01.231Z,99733.01
2023-05-24T22:09:44.748Z,99727.95
2023-05-24T22:12:17.686Z,99715.23
2023-05-24T22:14:50.620Z,99725.30
2023-05-24T22:17:24.827Z,99719.42
2023-05-24T22:20:07.711Z,99720.73
2023-05-24T22:22:53.850Z,99722.83
2023-05-24T22:25:26.904Z,99720.83
2023-05-24T22:28:10.584Z,99729.20
2023-05-24T22:30:43.129Z,99725.58
2023-05-24T22:33:25.265Z,99729.45
2023-05-24T22:35:57.909Z,99735.03
2023-05-24T22:38:41.747Z,99736.39
2023-05-24T22:41:15.128Z,99739.59
2023-05-24T22:43:59.872Z,99743.58
2023-05-24T22:46:32.707Z,99738.66
2023-05-24T22:49:18.148Z,99748.73
2023-05-24T22:51:52.985Z,99753.70
2023-05-24T22:54:37.005Z,99751.20
2023-05-24T22:57:10.912Z,99745.31
2023-05-24T22:59:54.822Z,99761.09
2023-05-24T23:02:29.419Z,99760.23
2023-05-24T23:05:11.749Z,99762.08
2023-05-24T23:07:44.518Z,99760.48
2023-05-24T23:10:26.898Z,99764.13
2023-05-24T23:13:00.169Z,99757.37
2023-05-24T23:15:44.079Z,99765.51
2023-05-24T23:18:18.436Z,99757.74
2023-05-24T23:21:03.749Z,99760.69
2023-05-24T23:23:37.890Z,99753.20
2023-05-24T23:26:23.242Z,99759.66
2023-05-24T23:28:56.077Z,99752.16
2023-05-24T23:31:28.599Z,99754.20
2023-05-24T23:34:13.005Z,99763.21
2023-05-24T23:36:58.070Z,99765.59
2023-05-24T23:39:30.681Z,99760.83
2023-05-24T23:42:14.424Z,99763.14
2023-05-24T23:44:47.146Z,99758.38
2023-05-24T23:47:31.270Z,99757.05
2023-05-24T23:50:03.847Z,99754.84
2023-05-24T23:52:49.583Z,99762.33
2023-05-24T23:55:23.265Z,99752.39
2023-05-24T23:58:08.040Z,99760.84
